BIMM weather

Melger├░ismelar Airport
Melger├░ismelar, Northeastern Region, Iceland

Public forecast

Using degrees Celsius for public forecast. Weather courtesy of forecast.io.

METAR (pilot weather report)

Closest report is Akureyri Airport, 10.9 nm (20.1 km) NNE. Retrieved 2019/06/18 00:00 UTC (29 minutes ago):

BIAR 180000Z 34011KT 9999 BKN017 OVC045 06/03 Q1007

TAF (pilot weather forecast)

Forecast is more than 12 hours old.

Closest forecast is Akureyri Airport, 10.9 nm (20.1 km) NNE. Retrieved 2019/06/17 00:16 UTC (1 day ago):

TAF BIAR 172214Z 1800/1900 35014KT 9999 -RA SCT010 OVC020 TX06/1815Z TN03/1806Z TEMPO 1800/1809 5000 DZ BR OVC008